*** The Vicarage Weather Feed ***
Oshawa-Weather Station Historical Data
 
Daily Summary for October 01, 2020 Units:  Metric    English   Both
Daily Weekly Monthly Yearly
  Current: High: Low: Average:
Temperature: 10.9 °C 11.6 °C 10.7 °C 11.1 °C
Dew Point: 7.9 °C 8.8 °C 7.6 °C 8.2 °C
Humidity: 82% 85% 81% 83%
Wind Speed: 4.8km/h 14.5km/h 0km/h 3.7km/h
Wind Gust: 14.5km/h 16.1km/h - -
WindWNW - - WNW
Pressure: 1008.1 hPa 1008.1 hPa 1003.1 hPa -
Precipitation: 0.0 mm      
 
 
Tabular Data for October 01, 2020
Time Temperature Dew Point Pressure Wind Wind Speed Wind Gust Humidity Rainfall Rate (Hourly) solar
00:00 11 °C 8.4 °C 1003.1 hPa Calm   3.2 km/h 84% 1.3 mm W/m2
00:10 10.8 °C 8.2 °C 1003.2 hPa Calm     84% 1.3 mm W/m2
00:20 10.9 °C 8.3 °C 1003.2 hPa Calm     84% 0.5 mm W/m2
00:30 10.9 °C 8.4 °C 1003.1 hPa Calm     85% 0.2 mm W/m2
00:40 10.8 °C 8.2 °C 1003.3 hPa WNW 1.6 km/h 4.8 km/h 84% 0.2 mm W/m2
00:50 11 °C 8.4 °C 1003.3 hPa Calm   4.8 km/h 84% 0.2 mm W/m2
01:00 11 °C 8.4 °C 1003.4 hPa Calm     84% 0.0 mm W/m2
01:10 11.1 °C 8.5 °C 1003.6 hPa West 1.6 km/h 3.2 km/h 84% 0.0 mm W/m2
01:20 11.4 °C 8.8 °C 1003.8 hPa Calm   6.4 km/h 84% 0.0 mm W/m2
01:30 11.5 °C 8.7 °C 1003.9 hPa West 1.6 km/h 9.7 km/h 83% 0.0 mm W/m2
01:40 11.6 °C 8.8 °C 1004.1 hPa North 3.2 km/h 11.3 km/h 83% 0.0 mm W/m2
01:50 11.6 °C 8.8 °C 1004.1 hPa Calm   12.9 km/h 83% 0.0 mm W/m2
02:00 11.5 °C 8.6 °C 1004.2 hPa WNW 1.6 km/h 12.9 km/h 82% 0.0 mm W/m2
02:10 11.5 °C 8.6 °C 1004.3 hPa WNW 3.2 km/h 12.9 km/h 82% 0.0 mm W/m2
02:20 11.4 °C 8.5 °C 1004.3 hPa WNW 6.4 km/h 11.3 km/h 82% 0.0 mm W/m2
02:30 11.3 °C 8.4 °C 1004.3 hPa WNW 6.4 km/h 11.3 km/h 82% 0.0 mm W/m2
02:40 11.2 °C 8.3 °C 1004.4 hPa WNW 4.8 km/h 9.7 km/h 82% 0.0 mm W/m2
02:50 11.2 °C 8.4 °C 1004.5 hPa West 9.7 km/h 12.9 km/h 83% 0.0 mm W/m2
03:00 11.2 °C 8.4 °C 1004.5 hPa West 11.3 km/h 11.3 km/h 83% 0.0 mm W/m2
03:10 11.1 °C 8.3 °C 1004.6 hPa WNW 1.6 km/h 14.5 km/h 83% 0.0 mm W/m2
03:20 10.9 °C 8.2 °C 1004.6 hPa WNW 1.6 km/h 12.9 km/h 83% 0.0 mm W/m2
03:30 10.9 °C 8.2 °C 1004.7 hPa Calm   12.9 km/h 83% 0.0 mm W/m2
03:40 11 °C 8.2 °C 1004.9 hPa North 6.4 km/h 11.3 km/h 83% 0.0 mm W/m2
03:50 11.1 °C 8.3 °C 1004.9 hPa WNW 4.8 km/h 12.9 km/h 83% 0.0 mm W/m2
04:00 11.2 °C 8.2 °C 1005.0 hPa WNW 3.2 km/h 16.1 km/h 82% 0.0 mm W/m2
04:10 11.1 °C 8.2 °C 1005.1 hPa WSW 14.5 km/h 14.5 km/h 82% 0.0 mm W/m2
04:20 11.2 °C 8.2 °C 1005.2 hPa North 3.2 km/h 12.9 km/h 82% 0.0 mm W/m2
04:30 11.2 °C 8.2 °C 1005.3 hPa West 6.4 km/h 11.3 km/h 82% 0.0 mm W/m2
04:40 11.1 °C 8.2 °C 1005.5 hPa Calm   11.3 km/h 82% 0.0 mm W/m2
04:50 11.1 °C 8.2 °C 1005.7 hPa WSW 8 km/h 9.7 km/h 82% 0.0 mm W/m2
05:00 11.2 °C 8.2 °C 1005.9 hPa West 4.8 km/h 8 km/h 82% 0.0 mm W/m2
05:10 11.2 °C 8.2 °C 1006.0 hPa North 3.2 km/h 6.4 km/h 82% 0.0 mm W/m2
05:20 11.2 °C 8.2 °C 1006.1 hPa Calm   6.4 km/h 82% 0.0 mm W/m2
05:30 11.2 °C 8.2 °C 1006.2 hPa Calm   11.3 km/h 82% 0.0 mm W/m2
05:40 11.1 °C 8.2 °C 1006.4 hPa WNW 4.8 km/h 9.7 km/h 82% 0.0 mm W/m2
05:50 11.1 °C 8.1 °C 1006.6 hPa Calm   9.7 km/h 82% 0.0 mm W/m2
06:00 11 °C 8.1 °C 1006.7 hPa North 8 km/h 12.9 km/h 82% 0.0 mm W/m2
06:10 11.1 °C 8.2 °C 1006.8 hPa WNW 6.4 km/h 11.3 km/h 82% 0.0 mm W/m2
06:20 11.1 °C 8.1 °C 1007.0 hPa WNW 6.4 km/h 9.7 km/h 82% 0.0 mm W/m2
06:30 10.9 °C 8 °C 1007.0 hPa West 3.2 km/h 11.3 km/h 82% 0.0 mm W/m2
06:40 11.1 °C 8.1 °C 1007.1 hPa WNW 1.6 km/h 6.4 km/h 82% 0.0 mm W/m2
06:50 11.1 °C 7.9 °C 1007.2 hPa West 4.8 km/h 12.9 km/h 81% 0.0 mm W/m2
07:00 11.1 °C 7.9 °C 1007.3 hPa West 9.7 km/h 9.7 km/h 81% 0.0 mm W/m2
07:10 11.1 °C 7.9 °C 1007.3 hPa West 4.8 km/h 9.7 km/h 81% 0.0 mm W/m2
07:20 11 °C 7.9 °C 1007.5 hPa WSW 1.6 km/h 12.9 km/h 81% 0.0 mm W/m2
07:30 10.8 °C 7.7 °C 1007.6 hPa WNW 3.2 km/h 12.9 km/h 81% 0.0 mm W/m2
07:40 10.7 °C 7.6 °C 1007.8 hPa WNW 3.2 km/h 11.3 km/h 81% 0.0 mm W/m2
07:50 10.7 °C 7.7 °C 1007.8 hPa West 4.8 km/h 6.4 km/h 82% 0.0 mm W/m2
08:00 10.7 °C 7.8 °C 1008.0 hPa North 9.7 km/h 12.9 km/h 82% 0.0 mm W/m2
08:10 10.8 °C 7.9 °C 1008.0 hPa WNW 3.2 km/h 11.3 km/h 82% 0.0 mm W/m2
08:20 10.9 °C 7.9 °C 1008.1 hPa WNW 4.8 km/h 14.5 km/h 82% 0.0 mm W/m2
Compliments of Weather Underground - 2.75 mb
This data is offered only as a general guide to local weather conditions. It should not be relied upon in lieu of officially disseminated weather information for determining possible risk to persons or property. This site, including all information contained therein, is made available as is without warranties of any kind, either express or implied. The Vicarage Weather Feed© includes links to other sites for user convenience only. The content of any linked third-party site is not controlled by The Vicarage Weather Feed©. Access to any third-party website through The Vicarage Weather Feed©, regardless of whether or not the third-party site is a linked site, is entirely at the users own risk. Externally sourced content or material is excluded from The Vicarage Weather Feed© copyright and is the copyright and property of the respective provider. Skywarn® and the Skywarn® logo are registered trademarks of the National Oceanic and Atmospheric Administration, used with permission.